Time;durP1;ratioP1;P1;durP2;ratioP2;P2;SDS_P1;SDS_P2;PMS_P1;PMS_P2;Temp;Humidity;BMP_temperature;BMP_pressure;BME280_temperature;BME280_humidity;BME280_pressure;Samples;Min_cycle;Max_cycle;Signal;HPM_P1;HPM_P2
2022/07/12 04:59:33;;;;;;;6.95;1.60;;;19.20;74.80;;;;;;5589412;24;20468;-79
2022/07/12 05:01:59;;;;;;;4.45;1.88;;;19.20;75.10;;;;;;4899076;29;20061;-78
2022/07/12 05:04:24;;;;;;;2.88;1.98;;;19.30;75.00;;;;;;4895144;29;20044;-81
2022/07/12 05:06:52;;;;;;;4.80;1.70;;;19.30;74.70;;;;;;4887239;29;20072;-78
2022/07/12 05:09:23;;;;;;;3.28;1.50;;;19.30;74.60;;;;;;4880822;29;20479;-85
2022/07/12 05:12:07;;;;;;;2.45;1.42;;;19.30;74.20;;;;;;4883669;29;20135;-81
2022/07/12 05:14:33;;;;;;;2.05;1.67;;;19.30;73.90;;;;;;4876972;29;20128;-78
2022/07/12 05:17:00;;;;;;;2.63;1.23;;;19.30;73.90;;;;;;4881861;29;20041;-80
2022/07/12 05:19:25;;;;;;;3.28;1.42;;;19.30;73.80;;;;;;4850222;29;20045;-81
2022/07/12 05:21:51;;;;;;;2.33;1.50;;;19.30;73.50;;;;;;4850227;29;20037;-80
2022/07/12 05:24:17;;;;;;;1.58;1.23;;;19.30;73.40;;;;;;4880901;29;20033;-81
2022/07/12 05:26:43;;;;;;;2.13;1.30;;;19.20;73.40;;;;;;4865342;29;20136;-81
2022/07/12 05:29:08;;;;;;;1.90;1.63;;;19.20;73.50;;;;;;4865336;29;20364;-82
2022/07/12 05:31:35;;;;;;;2.33;1.70;;;19.20;73.50;;;;;;4881937;29;20117;-82
2022/07/12 05:34:00;;;;;;;2.28;1.30;;;19.20;73.60;;;;;;4850169;29;20049;-83
2022/07/12 05:36:26;;;;;;;2.05;1.55;;;19.20;73.70;;;;;;4849996;29;20349;-81
2022/07/12 05:38:52;;;;;;;3.78;2.50;;;19.20;73.80;;;;;;4865217;29;20172;-74
2022/07/12 05:41:18;;;;;;;3.95;2.45;;;19.20;73.80;;;;;;4881988;29;20045;-81
2022/07/12 05:43:44;;;;;;;5.05;2.13;;;19.10;74.10;;;;;;4880869;29;20101;-79
2022/07/12 05:46:10;;;;;;;4.93;1.80;;;19.10;74.10;;;;;;4881331;29;20109;-80
2022/07/12 05:48:36;;;;;;;6.25;2.20;;;19.10;74.30;;;;;;4864896;29;20127;-79
2022/07/12 05:53:47;;;;;;;4.78;2.03;;;19.10;74.40;;;;;;4881199;29;20056;-79
2022/07/12 05:56:13;;;;;;;1.95;1.55;;;19.10;74.50;;;;;;4865368;29;20384;-79
2022/07/12 05:58:39;;;;;;;2.33;1.90;;;19.10;74.50;;;;;;4865237;29;20127;-79
2022/07/12 06:01:14;;;;;;;3.03;2.25;;;19.10;74.70;;;;;;4849201;29;20131;-83
2022/07/12 06:03:40;;;;;;;4.72;2.42;;;19.10;75.00;;;;;;4880738;29;20041;-80
2022/07/12 06:06:06;;;;;;;3.78;2.45;;;19.10;75.00;;;;;;4863753;29;20441;-79
2022/07/12 06:08:31;;;;;;;6.57;2.67;;;19.10;74.90;;;;;;4881195;29;20356;-78
2022/07/12 06:10:57;;;;;;;4.53;2.58;;;19.10;75.10;;;;;;4865121;29;20149;-76
2022/07/12 06:13:24;;;;;;;5.80;2.38;;;19.10;75.10;;;;;;4880177;29;20044;-75
2022/07/12 06:15:50;;;;;;;5.30;1.90;;;19.00;75.30;;;;;;4880907;29;20057;-73
2022/07/12 06:18:15;;;;;;;7.63;1.90;;;19.00;75.40;;;;;;4880876;29;20376;-73
2022/07/12 06:20:41;;;;;;;4.43;1.75;;;19.10;75.50;;;;;;4896430;29;20451;-72
2022/07/12 06:23:07;;;;;;;4.22;1.88;;;19.10;75.70;;;;;;4899749;29;20052;-73
2022/07/12 06:25:32;;;;;;;3.13;1.90;;;19.20;75.90;;;;;;4900169;29;20056;-74
2022/07/12 06:28:02;;;;;;;3.50;1.48;;;19.20;75.90;;;;;;4900136;29;20048;-74
2022/07/12 06:30:27;;;;;;;4.63;1.20;;;19.20;76.00;;;;;;4898096;29;20056;-73
2022/07/12 06:32:53;;;;;;;3.63;1.30;;;19.20;76.10;;;;;;4899511;29;20048;-72
2022/07/12 06:35:19;;;;;;;5.88;1.95;;;19.30;76.00;;;;;;4899809;29;20051;-74
2022/07/12 06:37:44;;;;;;;8.13;3.35;;;19.40;75.90;;;;;;4899571;29;20052;-72
2022/07/12 06:40:11;;;;;;;3.35;2.53;;;19.40;76.20;;;;;;4887497;29;20049;-74
2022/07/12 06:42:37;;;;;;;2.60;2.40;;;19.40;76.50;;;;;;4881415;29;20057;-73
2022/07/12 06:45:03;;;;;;;4.75;2.42;;;19.40;76.60;;;;;;4881117;29;20056;-78
2022/07/12 06:47:29;;;;;;;5.60;2.55;;;19.40;76.60;;;;;;4880883;29;20045;-73
2022/07/12 06:49:55;;;;;;;4.20;2.92;;;19.30;76.80;;;;;;4888875;29;20067;-73
2022/07/12 06:52:21;;;;;;;4.45;2.88;;;19.30;77.20;;;;;;4899622;29;20124;-76
2022/07/12 06:54:46;;;;;;;4.00;2.78;;;19.30;77.20;;;;;;4899437;29;20041;-74
2022/07/12 06:57:12;;;;;;;3.95;2.50;;;19.40;77.40;;;;;;4899536;29;20135;-73
2022/07/12 06:59:38;;;;;;;4.85;2.38;;;19.40;77.60;;;;;;4893211;29;20124;-74
2022/07/12 07:02:04;;;;;;;4.10;2.30;;;19.30;77.70;;;;;;4880402;29;20414;-74
2022/07/12 07:04:30;;;;;;;2.03;1.83;;;19.40;77.90;;;;;;4864531;29;20057;-75
2022/07/12 07:06:55;;;;;;;14.85;2.40;;;19.40;77.80;;;;;;4880730;29;20218;-75
2022/07/12 07:09:21;;;;;;;3.95;1.80;;;19.40;77.80;;;;;;4880846;29;20060;-77
2022/07/12 07:11:47;;;;;;;3.72;2.03;;;19.50;77.60;;;;;;4881578;29;20056;-75
2022/07/12 07:14:13;;;;;;;8.35;2.92;;;19.60;77.60;;;;;;4880645;29;20087;-76
2022/07/12 07:16:39;;;;;;;4.95;2.85;;;19.60;77.70;;;;;;4864534;29;20115;-77
2022/07/12 07:19:05;;;;;;;3.55;3.22;;;19.60;77.90;;;;;;4883570;29;20045;-77
2022/07/12 07:21:31;;;;;;;3.83;2.97;;;19.70;78.50;;;;;;4884043;29;20380;-77
2022/07/12 07:23:57;;;;;;;2.60;2.40;;;19.70;77.70;;;;;;4883392;29;20086;-83
2022/07/12 07:26:23;;;;;;;4.13;2.65;;;19.70;77.70;;;;;;4867641;29;20053;-73
2022/07/12 07:31:35;;;;;;;2.30;1.52;;;19.70;77.70;;;;;;4884021;29;20135;-74
2022/07/12 07:34:01;;;;;;;2.28;1.35;;;19.70;77.70;;;;;;4883222;29;20055;-73
2022/07/12 07:36:27;;;;;;;3.65;1.42;;;19.70;77.70;;;;;;4883656;29;20041;-74
2022/07/12 07:38:54;;;;;;;1.90;1.50;;;19.70;77.70;;;;;;4884034;29;20049;-74
2022/07/12 07:41:20;;;;;;;1.45;1.15;;;19.70;77.60;;;;;;4883805;29;20060;-73
2022/07/12 07:43:46;;;;;;;2.72;1.20;;;19.70;77.50;;;;;;4883694;29;20056;-74
2022/07/12 07:46:12;;;;;;;1.17;0.90;;;19.70;77.40;;;;;;4884596;29;20436;-74
2022/07/12 07:48:38;;;;;;;1.40;0.98;;;19.80;77.40;;;;;;4884045;29;20437;-74
2022/07/12 07:51:03;;;;;;;2.15;0.98;;;19.80;77.30;;;;;;4884029;29;20429;-75
2022/07/12 07:53:29;;;;;;;1.83;0.93;;;19.80;77.30;;;;;;4883172;29;20128;-73
2022/07/12 07:55:55;;;;;;;1.80;0.70;;;19.80;77.20;;;;;;4884076;29;20056;-74
2022/07/12 07:58:21;;;;;;;2.65;0.73;;;19.80;77.10;;;;;;4883814;29;20471;-74
2022/07/12 08:00:49;;;;;;;0.85;0.70;;;19.80;77.10;;;;;;4883397;29;20061;-74
2022/07/12 08:03:15;;;;;;;2.88;0.93;;;19.90;77.10;;;;;;4882939;29;20053;-75
2022/07/12 08:05:41;;;;;;;3.95;2.00;;;19.90;76.90;;;;;;4883930;29;20052;-77
2022/07/12 08:08:06;;;;;;;5.13;3.15;;;19.90;77.50;;;;;;4883872;29;20403;-75
2022/07/12 08:10:33;;;;;;;2.80;2.30;;;19.90;77.60;;;;;;4883391;29;20147;-76
2022/07/12 08:12:59;;;;;;;2.15;1.95;;;20.00;77.60;;;;;;4866766;29;20052;-75
2022/07/12 08:15:25;;;;;;;4.70;2.20;;;20.00;77.60;;;;;;4882983;29;20049;-75
2022/07/12 08:17:51;;;;;;;3.97;3.15;;;20.00;77.70;;;;;;4883600;29;20068;-75
2022/07/12 08:20:17;;;;;;;3.72;2.75;;;20.10;77.60;;;;;;4882868;29;20160;-73
2022/07/12 08:22:45;;;;;;;3.80;2.67;;;20.10;77.80;;;;;;4882831;29;20057;-74
2022/07/12 08:25:11;;;;;;;5.20;2.78;;;20.10;77.90;;;;;;4882973;29;20045;-73
2022/07/12 08:27:37;;;;;;;3.00;2.60;;;20.20;78.00;;;;;;4882946;29;20052;-74
2022/07/12 08:30:03;;;;;;;4.95;2.67;;;20.20;78.30;;;;;;4883027;29;20056;-74
2022/07/12 08:32:29;;;;;;;6.50;2.90;;;20.30;78.20;;;;;;4884149;29;20057;-75
2022/07/12 08:34:55;;;;;;;5.18;2.85;;;20.30;78.30;;;;;;4881976;29;20044;-75
2022/07/12 08:37:21;;;;;;;5.95;3.10;;;20.30;78.30;;;;;;4882312;29;20124;-75
2022/07/12 08:39:47;;;;;;;4.32;2.63;;;20.40;78.40;;;;;;4881800;29;20059;-76
2022/07/12 08:42:18;;;;;;;5.75;2.58;;;20.40;78.30;;;;;;4881867;29;20412;-73
2022/07/12 08:44:54;;;;;;;6.53;3.75;;;20.50;78.50;;;;;;4882147;29;20060;-77
2022/07/12 08:47:19;;;;;;;3.28;2.97;;;20.60;78.20;;;;;;4882461;29;20108;-77
2022/07/12 08:50:14;;;;;;;4.25;3.20;;;20.60;78.30;;;;;;4866750;29;20521;-75
2022/07/12 08:52:42;;;;;;;4.03;2.60;;;20.60;78.30;;;;;;4882261;29;20045;-76
2022/07/12 08:55:18;;;;;;;8.75;3.85;;;20.60;78.40;;;;;;4882544;29;20131;-74
2022/07/12 08:57:45;;;;;;;13.80;3.22;;;20.60;79.00;;;;;;4882679;29;20528;-74
2022/07/12 09:00:11;;;;;;;4.22;2.35;;;20.60;79.40;;;;;;4882505;29;20056;-76
2022/07/12 09:03:03;;;;;;;7.25;2.45;;;20.60;79.10;;;;;;4882073;29;20093;-74
2022/07/12 09:05:32;;;;;;;6.13;2.15;;;20.60;79.20;;;;;;4863377;29;20061;-77
2022/07/12 09:08:09;;;;;;;6.35;2.00;;;20.60;78.70;;;;;;4882816;29;20061;-75
2022/07/12 09:10:54;;;;;;;2.92;1.52;;;20.70;79.00;;;;;;4881646;29;20049;-78
2022/07/12 09:13:40;;;;;;;4.20;2.40;;;20.70;78.90;;;;;;4865590;29;20463;-75
2022/07/12 09:16:14;;;;;;;5.63;1.85;;;20.70;79.00;;;;;;4881796;29;20056;-75
2022/07/12 09:18:40;;;;;;;;;;;20.70;78.90;;;;;;4865970;29;20156;-75
2022/07/12 09:21:09;;;;;;;3.97;1.40;;;20.70;79.00;;;;;;4882075;29;20133;-76
2022/07/12 09:23:34;;;;;;;5.85;2.00;;;20.60;78.60;;;;;;4882207;29;20055;-77
2022/07/12 09:26:07;;;;;;;3.85;1.27;;;20.70;78.60;;;;;;4865938;29;20428;-77
2022/07/12 09:28:33;;;;;;;4.17;2.20;;;20.70;78.50;;;;;;4882221;29;20045;-79
2022/07/12 09:30:58;;;;;;;4.25;2.58;;;20.70;78.50;;;;;;4882026;29;20063;-75
2022/07/12 09:36:12;;;;;;;4.60;4.20;;;20.70;78.10;;;;;;4893796;29;20049;-81
2022/07/12 09:38:44;;;;;;;5.43;4.20;;;20.70;78.00;;;;;;4881207;29;20045;-81
2022/07/12 09:41:15;;;;;;;6.28;4.72;;;20.80;77.60;;;;;;4860862;29;20049;-79
2022/07/12 09:43:42;;;;;;;6.35;4.80;;;20.90;77.30;;;;;;4861324;29;20076;-79
2022/07/12 09:46:08;;;;;;;10.20;5.03;;;20.90;77.20;;;;;;4865564;29;20422;-78
2022/07/12 09:48:34;;;;;;;4.80;4.30;;;20.90;77.30;;;;;;4881784;29;20049;-78
2022/07/12 09:51:02;;;;;;;4.80;4.40;;;20.90;77.20;;;;;;4881642;29;20040;-79
2022/07/12 09:53:37;;;;;;;5.53;5.03;;;21.00;77.10;;;;;;4891108;29;20079;-79
2022/07/12 09:56:05;;;;;;;5.53;4.70;;;21.00;76.90;;;;;;4900428;29;20128;-80
2022/07/12 09:58:41;;;;;;;5.25;4.25;;;21.00;76.60;;;;;;4883680;29;20060;-80
2022/07/12 10:01:08;;;;;;;4.80;4.00;;;21.10;76.50;;;;;;4898900;29;20147;-77
2022/07/12 10:03:36;;;;;;;7.55;4.47;;;21.10;76.50;;;;;;4865112;29;20133;-74
2022/07/12 10:06:03;;;;;;;6.70;4.88;;;21.10;76.50;;;;;;4865253;29;20085;-75
2022/07/12 10:08:30;;;;;;;7.88;4.50;;;21.10;76.40;;;;;;4881190;29;20080;-76
2022/07/12 10:10:57;;;;;;;5.18;3.95;;;21.10;76.30;;;;;;4881530;29;20380;-77
2022/07/12 10:13:23;;;;;;;5.95;3.47;;;21.00;76.50;;;;;;4865042;29;20116;-75
2022/07/12 10:15:50;;;;;;;5.05;2.92;;;21.00;76.40;;;;;;4881510;29;20048;-74
2022/07/12 10:18:20;;;;;;;4.20;2.90;;;21.00;76.50;;;;;;4865008;29;20516;-75
2022/07/12 10:20:48;;;;;;;3.40;2.63;;;21.00;76.30;;;;;;4865175;29;20061;-76
2022/07/12 10:23:27;;;;;;;2.45;2.10;;;21.00;76.40;;;;;;4881687;29;20091;-76
2022/07/12 10:25:53;;;;;;;4.32;2.70;;;21.00;76.10;;;;;;4881231;29;20449;-76
2022/07/12 10:28:19;;;;;;;4.28;2.05;;;21.00;76.30;;;;;;4881004;29;20052;-75
2022/07/12 10:30:47;;;;;;;3.85;2.40;;;21.00;76.20;;;;;;4865191;29;20057;-76
2022/07/12 10:33:21;;;;;;;3.65;2.30;;;21.00;76.10;;;;;;4881238;29;20060;-74
2022/07/12 10:36:00;;;;;;;;;;;21.00;76.60;;;;;;4882041;29;20416;-75
2022/07/12 10:38:26;;;;;;;2.28;1.65;;;21.00;75.60;;;;;;4881132;29;19971;-74
2022/07/12 10:40:55;;;;;;;2.83;1.83;;;21.00;75.90;;;;;;4881264;29;20049;-80
2022/07/12 10:46:22;;;;;;;5.40;4.13;;;21.00;75.60;;;;;;4880780;29;20049;-81
2022/07/12 10:48:48;;;;;;;5.30;3.92;;;21.10;74.80;;;;;;4864221;29;20041;-79
2022/07/12 10:51:21;;;;;;;6.85;4.18;;;21.10;74.60;;;;;;4863737;29;20143;-81
2022/07/12 10:53:50;;;;;;;5.45;4.22;;;21.10;74.60;;;;;;4867172;29;20136;-77
2022/07/12 10:56:25;;;;;;;6.63;5.00;;;21.20;74.10;;;;;;4884692;29;20115;-75
2022/07/12 10:59:01;;;;;;;5.07;4.30;;;21.30;73.50;;;;;;4884232;29;20165;-78
2022/07/12 11:01:32;;;;;;;6.40;4.50;;;21.30;73.30;;;;;;4867700;29;20060;-81
2022/07/12 11:08:13;;;;;;;5.18;4.68;;;21.40;73.30;;;;;;4864096;29;20049;-84
2022/07/12 11:10:39;;;;;;;5.53;4.53;;;21.40;72.80;;;;;;4829910;29;20046;-82
2022/07/12 11:13:23;;;;;;;5.40;4.00;;;21.40;73.00;;;;;;4849211;29;20052;-80
2022/07/12 11:16:02;;;;;;;7.80;4.40;;;21.50;72.90;;;;;;4864438;29;20045;-82
2022/07/12 11:18:29;;;;;;;7.97;4.60;;;21.50;72.40;;;;;;4851408;29;20060;-82
2022/07/12 11:20:57;;;;;;;7.40;4.47;;;21.50;72.10;;;;;;4883346;29;20129;-81
2022/07/12 11:23:26;;;;;;;5.55;4.03;;;21.50;72.10;;;;;;4883208;29;20128;-84
2022/07/12 11:25:58;;;;;;;8.30;4.10;;;21.50;72.10;;;;;;4883823;29;20070;-81
2022/07/12 11:28:24;;;;;;;7.20;4.45;;;21.50;72.10;;;;;;4851710;29;20497;-80
2022/07/12 11:30:53;;;;;;;7.60;4.20;;;21.50;72.10;;;;;;4883892;29;20047;-80
2022/07/12 11:33:25;;;;;;;7.72;4.35;;;21.60;72.00;;;;;;4883133;29;20463;-76
2022/07/12 11:35:52;;;;;;;5.47;4.03;;;21.50;72.30;;;;;;4884066;29;20432;-75
2022/07/12 11:38:27;;;;;;;5.10;3.88;;;21.50;72.50;;;;;;4867180;29;20418;-75
2022/07/12 11:40:58;;;;;;;5.18;4.00;;;21.50;72.50;;;;;;4883706;29;20547;-76
2022/07/12 11:43:25;;;;;;;5.45;4.25;;;21.50;72.50;;;;;;4883864;29;20483;-75
2022/07/12 11:45:52;;;;;;;5.60;4.20;;;21.50;72.40;;;;;;4884451;29;20053;-76
2022/07/12 11:48:18;;;;;;;7.63;4.82;;;21.50;72.30;;;;;;4883510;29;20059;-80
2022/07/12 11:50:47;;;;;;;6.05;5.03;;;21.50;72.10;;;;;;4864492;29;20053;-80
2022/07/12 11:53:24;;;;;;;7.75;4.80;;;21.50;72.30;;;;;;4877136;29;20526;-78
2022/07/12 11:55:57;;;;;;;6.45;4.38;;;21.60;72.30;;;;;;4863735;29;20124;-76
2022/07/12 11:58:25;;;;;;;6.57;5.13;;;21.70;72.40;;;;;;4866708;29;20040;-78
2022/07/12 12:00:52;;;;;;;7.15;5.18;;;21.70;71.80;;;;;;4882826;29;20077;-78
2022/07/12 12:03:19;;;;;;;8.13;5.22;;;21.80;71.60;;;;;;4882877;29;20057;-78
2022/07/12 12:05:49;;;;;;;6.65;4.40;;;21.80;71.20;;;;;;4867048;29;20064;-77
2022/07/12 12:08:16;;;;;;;5.72;4.22;;;21.80;71.00;;;;;;4867290;29;20453;-78
2022/07/12 12:10:51;;;;;;;3.78;3.40;;;21.90;71.20;;;;;;4883406;29;20045;-75
2022/07/12 12:13:17;;;;;;;4.65;3.50;;;21.80;71.10;;;;;;4882731;29;20166;-76
2022/07/12 12:16:10;;;;;;;5.15;3.22;;;21.80;71.40;;;;;;4883307;29;20522;-76
2022/07/12 12:18:41;;;;;;;5.13;3.30;;;21.80;71.60;;;;;;4880767;29;20080;-78
2022/07/12 12:21:09;;;;;;;5.97;3.00;;;21.80;71.70;;;;;;4883259;29;20456;-75
2022/07/12 12:23:36;;;;;;;3.78;2.72;;;21.70;72.40;;;;;;4882992;29;20073;-75
2022/07/12 12:26:23;;;;;;;4.45;2.55;;;21.70;71.90;;;;;;4883193;29;20093;-77
2022/07/12 12:28:50;;;;;;;6.35;2.38;;;21.70;71.80;;;;;;4880857;29;20045;-76
2022/07/12 12:31:18;;;;;;;4.32;2.28;;;21.70;72.20;;;;;;4882686;29;20081;-78
2022/07/12 12:33:52;;;;;;;3.92;2.70;;;21.70;72.20;;;;;;4866160;29;20380;-76
2022/07/12 12:36:26;;;;;;;3.88;2.17;;;21.60;72.30;;;;;;4883040;29;20053;-77
2022/07/12 12:39:00;;;;;;;5.00;2.67;;;21.60;72.50;;;;;;4882571;29;20460;-79
2022/07/12 12:41:28;;;;;;;6.18;2.50;;;21.70;72.60;;;;;;4866011;29;20095;-77
2022/07/12 12:44:03;;;;;;;6.45;2.80;;;21.70;72.00;;;;;;4882630;29;20045;-78
2022/07/12 12:49:51;;;;;;;8.00;2.60;;;21.70;72.10;;;;;;4882606;29;20069;-77
2022/07/12 12:52:18;;;;;;;11.23;3.53;;;21.60;72.20;;;;;;4882353;29;20416;-77
2022/07/12 12:54:44;;;;;;;8.15;3.00;;;21.60;73.10;;;;;;4866182;29;20044;-76
2022/07/12 12:57:11;;;;;;;9.05;3.72;;;21.60;73.10;;;;;;4882421;29;20049;-78
2022/07/12 12:59:37;;;;;;;20.52;4.47;;;21.60;73.50;;;;;;4882200;29;20060;-70
2022/07/12 13:02:05;;;;;;;16.90;4.68;;;21.70;74.00;;;;;;4881928;29;20116;-78
2022/07/12 13:04:33;;;;;;;11.05;4.40;;;21.70;74.20;;;;;;4882376;29;20065;-77
2022/07/12 13:06:59;;;;;;;25.13;5.38;;;21.70;73.80;;;;;;4881606;29;20049;-78
2022/07/12 13:09:26;;;;;;;13.27;5.88;;;21.70;74.20;;;;;;4865932;29;20060;-72
2022/07/12 13:11:52;;;;;;;13.75;5.70;;;21.70;74.10;;;;;;4882049;29;20128;-76
2022/07/12 13:14:18;;;;;;;16.38;5.97;;;21.70;73.70;;;;;;4865436;29;20104;-76
2022/07/12 13:16:44;;;;;;;10.32;6.05;;;21.80;73.50;;;;;;4880755;29;20361;-78
2022/07/12 13:19:09;;;;;;;12.38;6.82;;;21.80;73.30;;;;;;4881588;29;20056;-76
2022/07/12 13:21:35;;;;;;;19.55;7.25;;;21.80;72.90;;;;;;4882010;29;20128;-76
2022/07/12 13:24:01;;;;;;;19.35;7.60;;;21.90;72.30;;;;;;4865788;29;20132;-77
2022/07/12 13:26:27;;;;;;;18.30;7.57;;;21.90;72.40;;;;;;4865681;29;20053;-76
2022/07/12 13:28:54;;;;;;;14.18;5.75;;;21.90;72.50;;;;;;4881658;29;20053;-77
2022/07/12 13:31:20;;;;;;;10.98;5.68;;;21.90;72.60;;;;;;4881981;29;20173;-77
2022/07/12 13:33:46;;;;;;;13.05;6.30;;;21.80;72.60;;;;;;4881822;29;20111;-75
2022/07/12 13:36:12;;;;;;;12.18;5.70;;;21.80;72.80;;;;;;4881395;29;20060;-75
2022/07/12 13:38:38;;;;;;;11.35;5.78;;;21.80;72.90;;;;;;4865309;29;20131;-76
2022/07/12 13:41:04;;;;;;;11.43;4.90;;;21.80;72.90;;;;;;4865538;29;20049;-75
2022/07/12 13:43:30;;;;;;;10.27;4.05;;;21.80;73.00;;;;;;4881580;29;20469;-77
2022/07/12 13:45:56;;;;;;;8.23;4.72;;;21.70;73.10;;;;;;4881604;29;20044;-76
2022/07/12 13:48:21;;;;;;;9.00;4.50;;;21.70;73.10;;;;;;4881414;29;20131;-76
2022/07/12 13:50:47;;;;;;;10.15;5.10;;;21.70;73.20;;;;;;4881541;29;20088;-77
2022/07/12 13:53:14;;;;;;;7.05;4.15;;;21.70;73.20;;;;;;4881488;29;20449;-78
2022/07/12 13:55:43;;;;;;;9.30;4.75;;;21.70;73.20;;;;;;4865203;29;20084;-75
2022/07/12 13:58:09;;;;;;;9.90;4.78;;;21.70;73.20;;;;;;4881221;29;20449;-77
2022/07/12 14:00:35;;;;;;;6.07;3.90;;;21.70;73.20;;;;;;4864858;29;20053;-76
2022/07/12 14:03:01;;;;;;;6.80;4.13;;;21.70;73.30;;;;;;4881056;29;20398;-76
2022/07/12 14:05:27;;;;;;;7.03;4.22;;;21.70;73.30;;;;;;4881017;29;20432;-78
2022/07/12 14:07:53;;;;;;;9.57;4.43;;;21.70;73.30;;;;;;4881466;29;20040;-77
2022/07/12 14:10:19;;;;;;;4.32;3.53;;;21.70;73.30;;;;;;4881367;29;20092;-76
2022/07/12 14:12:45;;;;;;;8.68;3.70;;;21.70;73.30;;;;;;4880971;29;20480;-77
2022/07/12 14:17:42;;;;;;;8.30;4.30;;;21.70;73.30;;;;;;4880895;29;20049;-77
2022/07/12 14:20:09;;;;;;;8.52;4.72;;;21.70;73.10;;;;;;4881101;29;20536;-79
2022/07/12 14:22:35;;;;;;;9.65;7.43;;;21.70;73.00;;;;;;4881152;29;20057;-77
2022/07/12 14:25:03;;;;;;;12.18;5.75;;;21.70;73.00;;;;;;4881135;29;20076;-77
2022/07/12 14:27:39;;;;;;;7.70;5.95;;;21.80;73.10;;;;;;4882311;29;20409;-77
2022/07/12 14:30:08;;;;;;;9.18;6.20;;;21.80;73.20;;;;;;4885155;29;20049;-77
2022/07/12 14:32:35;;;;;;;7.05;6.05;;;21.80;73.30;;;;;;4868569;29;20398;-77
2022/07/12 14:35:01;;;;;;;8.32;6.20;;;21.80;73.30;;;;;;4885135;29;20056;-76
2022/07/12 14:37:27;;;;;;;7.32;6.05;;;21.80;73.50;;;;;;4885176;29;20052;-76
2022/07/12 14:39:53;;;;;;;5.97;5.38;;;21.80;73.70;;;;;;4884714;29;20053;-79
2022/07/12 18:28:09;;;;;;;5.50;5.00;;;21.90;70.90;;;;;;5741338;24;20631;-76
2022/07/12 18:30:35;;;;;;;5.82;4.70;;;21.90;70.80;;;;;;4855418;29;20465;-76
2022/07/12 18:33:00;;;;;;;6.95;5.78;;;21.90;71.00;;;;;;4862895;29;20047;-76
2022/07/12 18:35:26;;;;;;;6.63;5.15;;;21.90;70.80;;;;;;4862782;29;20048;-78
2022/07/12 18:37:52;;;;;;;6.38;5.28;;;21.90;70.90;;;;;;4862559;29;20538;-76
2022/07/12 18:40:18;;;;;;;8.68;5.00;;;21.90;70.80;;;;;;4862404;29;20064;-78
2022/07/12 18:42:44;;;;;;;7.60;5.18;;;21.90;71.00;;;;;;4862119;29;20060;-77
2022/07/12 18:45:10;;;;;;;5.38;4.80;;;21.90;71.20;;;;;;4862843;29;20124;-77
2022/07/12 18:47:35;;;;;;;5.95;5.35;;;21.90;71.20;;;;;;4861479;29;20041;-77
2022/07/12 18:50:01;;;;;;;8.02;5.20;;;21.90;71.10;;;;;;4862435;29;20461;-77
2022/07/12 18:52:27;;;;;;;7.32;5.20;;;21.90;70.80;;;;;;4862558;29;20113;-77
2022/07/12 18:54:53;;;;;;;6.38;5.07;;;21.90;70.70;;;;;;4862463;29;20065;-77
2022/07/12 18:57:19;;;;;;;6.72;5.57;;;21.90;70.80;;;;;;4860883;29;20049;-77
2022/07/12 18:59:44;;;;;;;6.22;5.63;;;21.90;70.70;;;;;;4861173;29;20068;-78
2022/07/12 19:20:24;;;;;;;6.05;5.40;;;21.90;70.80;;;;;;5302352;24;20125;-79
2022/07/12 19:22:50;;;;;;;11.18;5.70;;;21.90;71.10;;;;;;4864481;29;20417;-78
2022/07/12 19:25:15;;;;;;;8.68;5.60;;;21.90;71.30;;;;;;4834287;29;20050;-72
2022/07/12 19:27:41;;;;;;;9.48;5.40;;;21.90;71.50;;;;;;4847080;29;20057;-78
2022/07/12 19:30:07;;;;;;;7.03;5.20;;;21.90;71.60;;;;;;4847079;29;20046;-78
2022/07/12 19:32:33;;;;;;;8.07;5.57;;;21.90;71.60;;;;;;4847170;29;20125;-77
2022/07/12 19:34:59;;;;;;;6.03;5.03;;;21.90;71.60;;;;;;4847064;29;20053;-78
2022/07/12 19:37:25;;;;;;;6.68;5.35;;;21.90;71.60;;;;;;4831160;29;20053;-79
2022/07/12 19:39:53;;;;;;;5.53;4.90;;;21.90;71.70;;;;;;4855486;29;20045;-81
2022/07/12 19:42:18;;;;;;;6.00;5.05;;;21.90;72.00;;;;;;4817352;29;20061;-80
2022/07/12 19:44:44;;;;;;;10.68;5.50;;;21.90;72.10;;;;;;4846952;29;20030;-77
2022/07/12 19:47:10;;;;;;;8.10;5.20;;;21.90;72.00;;;;;;4832774;29;20053;-77
2022/07/12 19:49:36;;;;;;;5.90;5.30;;;21.90;72.20;;;;;;4846834;29;20054;-80
2022/07/12 19:52:02;;;;;;;7.97;5.78;;;21.90;72.10;;;;;;4830844;29;20042;-79
2022/07/12 19:54:28;;;;;;;10.02;5.78;;;21.90;72.10;;;;;;4846658;29;20050;-76
2022/07/12 19:56:53;;;;;;;7.10;6.15;;;21.90;72.20;;;;;;4846631;29;20046;-79
2022/07/12 19:59:19;;;;;;;7.35;6.10;;;21.90;72.20;;;;;;4830257;29;20064;-79
2022/07/12 20:01:46;;;;;;;7.90;5.68;;;21.90;72.10;;;;;;4830312;29;20125;-79
2022/07/12 20:04:12;;;;;;;7.97;6.43;;;21.90;72.00;;;;;;4846361;29;20034;-81
2022/07/12 20:06:37;;;;;;;8.23;5.60;;;21.90;72.00;;;;;;4830281;29;20094;-79
2022/07/12 20:09:04;;;;;;;10.32;6.10;;;21.90;72.30;;;;;;4846396;29;20359;-81
2022/07/12 20:11:30;;;;;;;8.20;6.03;;;21.90;72.60;;;;;;4830237;29;20044;-78
2022/07/12 20:13:56;;;;;;;7.50;6.40;;;21.90;72.70;;;;;;4846437;29;20038;-79
2022/07/12 20:16:23;;;;;;;9.77;7.70;;;21.90;72.80;;;;;;4845989;29;20136;-79
2022/07/12 20:18:49;;;;;;;9.20;6.88;;;21.90;73.00;;;;;;4830395;29;20493;-78
2022/07/12 20:21:15;;;;;;;8.55;6.55;;;21.80;73.30;;;;;;4852407;29;20049;-79
2022/07/12 20:23:42;;;;;;;9.73;6.90;;;21.80;73.50;;;;;;4850410;29;20084;-80
2022/07/12 20:26:10;;;;;;;7.38;6.40;;;21.90;73.80;;;;;;4847360;29;20098;-85
2022/07/12 20:28:36;;;;;;;6.22;5.57;;;21.90;73.60;;;;;;4848248;29;20045;-77
2022/07/12 20:31:03;;;;;;;7.53;6.32;;;21.80;73.60;;;;;;4864339;29;20422;-79
2022/07/12 20:36:21;;;;;;;7.18;6.47;;;21.90;73.20;;;;;;4835176;29;20049;-83
2022/07/12 20:38:46;;;;;;;7.10;6.40;;;21.90;73.20;;;;;;4864511;29;20041;-79
2022/07/12 20:41:12;;;;;;;7.50;5.82;;;21.90;73.30;;;;;;4847974;29;20116;-79
2022/07/12 20:43:40;;;;;;;5.88;5.30;;;21.80;73.40;;;;;;4848751;29;20061;-79
2022/07/12 20:46:07;;;;;;;7.35;5.82;;;21.80;73.60;;;;;;4864242;29;20072;-78
2022/07/12 20:48:33;;;;;;;6.65;5.43;;;21.90;73.80;;;;;;4847866;29;20064;-79
2022/07/12 20:51:03;;;;;;;7.53;5.13;;;21.80;73.70;;;;;;4864246;29;20410;-82
2022/07/12 20:53:29;;;;;;;7.95;5.80;;;21.90;73.80;;;;;;4865051;29;20191;-80
